sensor_id;sensor_type;location;lat;lon;timestamp;pressure;altitude;pressure_sealevel;temperature;humidity
50123;BME280;36021;48.670;6.184;2022-12-08T00:01:14;98751.81;;;4.89;100.00
50123;BME280;36021;48.670;6.184;2022-12-08T00:03:40;98744.34;;;4.69;100.00
50123;BME280;36021;48.670;6.184;2022-12-08T00:06:33;98742.34;;;4.54;100.00
50123;BME280;36021;48.670;6.184;2022-12-08T00:09:32;98745.25;;;4.43;100.00
50123;BME280;36021;48.670;6.184;2022-12-08T00:12:01;98743.34;;;4.43;100.00
50123;BME280;36021;48.670;6.184;2022-12-08T00:14:33;98737.13;;;4.53;100.00
50123;BME280;36021;48.670;6.184;2022-12-08T00:17:02;98733.13;;;4.65;100.00
50123;BME280;36021;48.670;6.184;2022-12-08T00:19:29;98742.44;;;4.74;100.00
50123;BME280;36021;48.670;6.184;2022-12-08T00:21:55;98736.19;;;4.74;100.00
50123;BME280;36021;48.670;6.184;2022-12-08T00:24:23;98729.69;;;4.80;100.00
50123;BME280;36021;48.670;6.184;2022-12-08T00:26:50;98725.34;;;4.84;100.00
50123;BME280;36021;48.670;6.184;2022-12-08T00:29:16;98720.13;;;4.88;100.00
50123;BME280;36021;48.670;6.184;2022-12-08T00:31:42;98724.28;;;4.90;100.00
50123;BME280;36021;48.670;6.184;2022-12-08T00:34:08;98717.16;;;4.94;100.00
50123;BME280;36021;48.670;6.184;2022-12-08T00:36:34;98706.81;;;4.96;100.00
50123;BME280;36021;48.670;6.184;2022-12-08T00:38:59;98707.94;;;5.00;100.00
50123;BME280;36021;48.670;6.184;2022-12-08T00:41:26;98709.25;;;4.98;100.00
50123;BME280;36021;48.670;6.184;2022-12-08T00:44:14;98707.66;;;5.02;100.00
50123;BME280;36021;48.670;6.184;2022-12-08T00:46:42;98707.66;;;5.02;100.00
50123;BME280;36021;48.670;6.184;2022-12-08T00:49:08;98704.63;;;4.98;100.00
50123;BME280;36021;48.670;6.184;2022-12-08T00:51:34;98702.16;;;4.92;100.00
50123;BME280;36021;48.670;6.184;2022-12-08T00:53:59;98694.50;;;4.89;100.00
50123;BME280;36021;48.670;6.184;2022-12-08T00:56:25;98702.44;;;4.90;100.00
50123;BME280;36021;48.670;6.184;2022-12-08T00:58:51;98703.56;;;4.99;100.00
50123;BME280;36021;48.670;6.184;2022-12-08T01:01:20;98697.78;;;4.91;100.00
50123;BME280;36021;48.670;6.184;2022-12-08T01:03:46;98690.69;;;4.95;100.00
50123;BME280;36021;48.670;6.184;2022-12-08T01:06:13;98694.25;;;4.95;100.00
50123;BME280;36021;48.670;6.184;2022-12-08T01:08:39;98691.56;;;5.05;100.00
50123;BME280;36021;48.670;6.184;2022-12-08T01:11:06;98698.38;;;5.08;100.00
50123;BME280;36021;48.670;6.184;2022-12-08T01:13:33;98703.03;;;5.07;100.00
50123;BME280;36021;48.670;6.184;2022-12-08T01:15:58;98699.25;;;5.13;100.00
50123;BME280;36021;48.670;6.184;2022-12-08T01:18:26;98694.88;;;5.17;100.00
50123;BME280;36021;48.670;6.184;2022-12-08T01:20:52;98693.22;;;5.11;100.00
50123;BME280;36021;48.670;6.184;2022-12-08T01:23:19;98686.44;;;5.19;100.00
50123;BME280;36021;48.670;6.184;2022-12-08T01:25:44;98682.31;;;5.16;100.00
50123;BME280;36021;48.670;6.184;2022-12-08T01:28:10;98685.59;;;5.18;100.00
50123;BME280;36021;48.670;6.184;2022-12-08T01:30:39;98689.16;;;5.24;100.00
50123;BME280;36021;48.670;6.184;2022-12-08T01:33:05;98686.19;;;5.31;100.00
50123;BME280;36021;48.670;6.184;2022-12-08T01:35:32;98687.28;;;5.35;100.00
50123;BME280;36021;48.670;6.184;2022-12-08T01:37:58;98677.38;;;5.03;100.00
50123;BME280;36021;48.670;6.184;2022-12-08T01:40:24;98680.59;;;4.95;100.00
50123;BME280;36021;48.670;6.184;2022-12-08T01:42:49;98674.09;;;5.06;100.00
50123;BME280;36021;48.670;6.184;2022-12-08T01:45:24;98678.19;;;5.09;100.00
50123;BME280;36021;48.670;6.184;2022-12-08T01:47:54;98671.94;;;5.18;100.00
50123;BME280;36021;48.670;6.184;2022-12-08T01:50:23;98660.97;;;5.03;100.00
50123;BME280;36021;48.670;6.184;2022-12-08T01:52:53;98669.75;;;5.15;100.00
50123;BME280;36021;48.670;6.184;2022-12-08T01:55:26;98672.78;;;5.19;100.00
50123;BME280;36021;48.670;6.184;2022-12-08T01:57:57;98672.81;;;5.29;100.00
50123;BME280;36021;48.670;6.184;2022-12-08T02:00:25;98667.63;;;5.33;100.00
50123;BME280;36021;48.670;6.184;2022-12-08T02:03:04;98663.22;;;5.37;100.00
50123;BME280;36021;48.670;6.184;2022-12-08T02:05:33;98668.63;;;5.06;100.00
50123;BME280;36021;48.670;6.184;2022-12-08T02:08:02;98667.78;;;5.01;100.00
50123;BME280;36021;48.670;6.184;2022-12-08T02:10:33;98664.75;;;4.87;100.00
50123;BME280;36021;48.670;6.184;2022-12-08T02:13:00;98672.41;;;4.95;100.00
50123;BME280;36021;48.670;6.184;2022-12-08T02:18:15;98668.66;;;5.21;100.00
50123;BME280;36021;48.670;6.184;2022-12-08T02:37:15;98643.44;;;4.89;100.00
50123;BME280;36021;48.670;6.184;2022-12-08T02:47:17;98630.72;;;4.53;100.00
50123;BME280;36021;48.670;6.184;2022-12-08T02:49:43;98622.72;;;4.36;100.00
50123;BME280;36021;48.670;6.184;2022-12-08T02:54:44;98623.59;;;4.47;100.00
50123;BME280;36021;48.670;6.184;2022-12-08T03:00:10;98619.03;;;4.62;100.00
50123;BME280;36021;48.670;6.184;2022-12-08T03:12:05;98593.34;;;4.53;100.00
50123;BME280;36021;48.670;6.184;2022-12-08T03:14:28;98600.75;;;4.58;100.00
50123;BME280;36021;48.670;6.184;2022-12-08T03:16:57;98594.72;;;4.56;100.00
50123;BME280;36021;48.670;6.184;2022-12-08T03:19:27;98593.66;;;4.57;100.00
50123;BME280;36021;48.670;6.184;2022-12-08T03:21:57;98590.91;;;4.57;100.00
50123;BME280;36021;48.670;6.184;2022-12-08T03:24:37;98579.91;;;4.42;100.00
50123;BME280;36021;48.670;6.184;2022-12-08T03:27:07;98579.63;;;4.33;100.00
50123;BME280;36021;48.670;6.184;2022-12-08T03:29:34;98587.84;;;4.38;100.00
50123;BME280;36021;48.670;6.184;2022-12-08T03:32:07;98578.25;;;4.31;100.00
50123;BME280;36021;48.670;6.184;2022-12-08T03:34:34;98581.59;;;4.48;100.00
50123;BME280;36021;48.670;6.184;2022-12-08T03:37:01;98570.94;;;4.46;100.00
50123;BME280;36021;48.670;6.184;2022-12-08T03:39:27;98567.97;;;4.48;100.00
50123;BME280;36021;48.670;6.184;2022-12-08T03:41:52;98573.44;;;4.53;100.00
50123;BME280;36021;48.670;6.184;2022-12-08T03:44:19;98567.44;;;4.51;100.00
50123;BME280;36021;48.670;6.184;2022-12-08T03:46:45;98572.34;;;4.59;100.00
50123;BME280;36021;48.670;6.184;2022-12-08T03:49:11;98565.94;;;4.23;100.00
50123;BME280;36021;48.670;6.184;2022-12-08T03:51:36;98565.69;;;4.25;100.00
50123;BME280;36021;48.670;6.184;2022-12-08T03:54:02;98568.22;;;4.41;100.00
50123;BME280;36021;48.670;6.184;2022-12-08T03:56:34;98556.47;;;4.46;100.00
50123;BME280;36021;48.670;6.184;2022-12-08T03:59:00;98567.47;;;4.61;100.00
50123;BME280;36021;48.670;6.184;2022-12-08T04:01:26;98568.31;;;4.71;100.00
50123;BME280;36021;48.670;6.184;2022-12-08T04:03:53;98559.28;;;4.61;100.00
50123;BME280;36021;48.670;6.184;2022-12-08T04:06:20;98551.13;;;4.76;100.00
50123;BME280;36021;48.670;6.184;2022-12-08T04:08:46;98548.97;;;4.83;100.00
50123;BME280;36021;48.670;6.184;2022-12-08T04:11:12;98543.22;;;4.80;100.00
50123;BME280;36021;48.670;6.184;2022-12-08T04:13:39;98543.53;;;4.93;100.00
50123;BME280;36021;48.670;6.184;2022-12-08T04:16:05;98535.84;;;4.75;100.00
50123;BME280;36021;48.670;6.184;2022-12-08T04:18:32;98540.72;;;4.68;100.00
50123;BME280;36021;48.670;6.184;2022-12-08T04:20:59;98541.88;;;4.82;100.00
50123;BME280;36021;48.670;6.184;2022-12-08T04:23:26;98539.13;;;4.82;100.00
50123;BME280;36021;48.670;6.184;2022-12-08T04:25:52;98538.06;;;4.93;100.00
50123;BME280;36021;48.670;6.184;2022-12-08T04:28:18;98528.81;;;4.99;100.00
50123;BME280;36021;48.670;6.184;2022-12-08T04:30:44;98532.06;;;4.91;100.00
50123;BME280;36021;48.670;6.184;2022-12-08T04:33:09;98525.44;;;4.62;100.00
50123;BME280;36021;48.670;6.184;2022-12-08T04:35:35;98530.56;;;4.48;100.00
50123;BME280;36021;48.670;6.184;2022-12-08T04:38:01;98525.47;;;4.67;100.00
50123;BME280;36021;48.670;6.184;2022-12-08T04:40:27;98528.47;;;4.70;100.00
50123;BME280;36021;48.670;6.184;2022-12-08T04:42:54;98529.03;;;4.78;100.00
50123;BME280;36021;48.670;6.184;2022-12-08T04:45:21;98527.69;;;4.85;100.00
50123;BME280;36021;48.670;6.184;2022-12-08T04:47:47;98528.25;;;4.87;100.00
50123;BME280;36021;48.670;6.184;2022-12-08T04:50:12;98521.66;;;4.88;100.00
50123;BME280;36021;48.670;6.184;2022-12-08T04:52:38;98518.66;;;4.85;100.00
50123;BME280;36021;48.670;6.184;2022-12-08T04:55:04;98521.13;;;4.86;100.00
50123;BME280;36021;48.670;6.184;2022-12-08T04:57:30;98524.41;;;4.83;100.00
50123;BME280;36021;48.670;6.184;2022-12-08T04:59:56;98526.03;;;4.79;100.00
50123;BME280;36021;48.670;6.184;2022-12-08T05:02:23;98529.84;;;4.88;100.00
50123;BME280;36021;48.670;6.184;2022-12-08T05:04:49;98522.22;;;4.80;100.00
50123;BME280;36021;48.670;6.184;2022-12-08T05:07:15;98524.63;;;4.71;100.00
50123;BME280;36021;48.670;6.184;2022-12-08T05:09:40;98523.31;;;4.74;100.00
50123;BME280;36021;48.670;6.184;2022-12-08T05:12:06;98529.00;;;4.72;100.00
50123;BME280;36021;48.670;6.184;2022-12-08T05:14:32;98529.28;;;4.81;100.00
50123;BME280;36021;48.670;6.184;2022-12-08T05:16:58;98526.00;;;4.69;100.00
50123;BME280;36021;48.670;6.184;2022-12-08T05:19:23;98526.84;;;4.80;100.00
50123;BME280;36021;48.670;6.184;2022-12-08T05:21:50;98524.94;;;4.80;100.00
50123;BME280;36021;48.670;6.184;2022-12-08T05:24:17;98540.78;;;4.88;100.00
50123;BME280;36021;48.670;6.184;2022-12-08T05:26:43;98535.88;;;4.95;100.00
50123;BME280;36021;48.670;6.184;2022-12-08T05:29:09;98521.41;;;4.80;100.00
50123;BME280;36021;48.670;6.184;2022-12-08T05:31:34;98517.88;;;4.84;100.00
50123;BME280;36021;48.670;6.184;2022-12-08T05:34:00;98518.94;;;4.88;100.00
50123;BME280;36021;48.670;6.184;2022-12-08T05:36:26;98511.56;;;4.79;100.00
50123;BME280;36021;48.670;6.184;2022-12-08T05:38:51;98509.41;;;4.81;100.00
50123;BME280;36021;48.670;6.184;2022-12-08T05:41:19;98508.28;;;4.82;100.00
50123;BME280;36021;48.670;6.184;2022-12-08T05:43:46;98505.28;;;4.73;100.00
50123;BME280;36021;48.670;6.184;2022-12-08T05:46:13;98505.81;;;4.70;100.00
50123;BME280;36021;48.670;6.184;2022-12-08T05:48:39;98498.75;;;4.74;100.00
50123;BME280;36021;48.670;6.184;2022-12-08T05:51:07;98500.34;;;4.70;100.00
50123;BME280;36021;48.670;6.184;2022-12-08T05:53:38;98501.47;;;4.74;100.00
50123;BME280;36021;48.670;6.184;2022-12-08T05:56:04;98503.34;;;4.68;100.00
50123;BME280;36021;48.670;6.184;2022-12-08T05:58:29;98506.31;;;4.62;100.00
50123;BME280;36021;48.670;6.184;2022-12-08T06:00:56;98505.78;;;4.60;100.00
50123;BME280;36021;48.670;6.184;2022-12-08T06:03:22;98504.13;;;4.59;100.00
50123;BME280;36021;48.670;6.184;2022-12-08T06:05:48;98497.00;;;4.43;100.00
50123;BME280;36021;48.670;6.184;2022-12-08T06:08:14;98498.06;;;4.42;100.00
50123;BME280;36021;48.670;6.184;2022-12-08T06:10:41;98502.47;;;4.38;100.00
50123;BME280;36021;48.670;6.184;2022-12-08T06:13:07;98500.81;;;4.42;100.00
50123;BME280;36021;48.670;6.184;2022-12-08T06:15:34;98517.16;;;4.37;100.00
50123;BME280;36021;48.670;6.184;2022-12-08T06:18:00;98511.72;;;4.37;100.00
50123;BME280;36021;48.670;6.184;2022-12-08T06:20:27;98506.81;;;4.39;100.00
50123;BME280;36021;48.670;6.184;2022-12-08T06:22:54;98511.72;;;4.37;100.00
50123;BME280;36021;48.670;6.184;2022-12-08T06:25:20;98499.19;;;4.41;100.00
50123;BME280;36021;48.670;6.184;2022-12-08T06:27:46;98514.16;;;4.28;100.00
50123;BME280;36021;48.670;6.184;2022-12-08T06:30:13;98512.50;;;4.22;100.00
50123;BME280;36021;48.670;6.184;2022-12-08T06:32:40;98521.47;;;4.17;100.00
50123;BME280;36021;48.670;6.184;2022-12-08T06:35:06;98513.00;;;4.14;100.00
50123;BME280;36021;48.670;6.184;2022-12-08T06:37:32;98517.31;;;4.10;100.00
50123;BME280;36021;48.670;6.184;2022-12-08T06:39:58;98513.28;;;4.17;100.00
50123;BME280;36021;48.670;6.184;2022-12-08T06:42:23;98507.53;;;4.19;100.00
50123;BME280;36021;48.670;6.184;2022-12-08T06:45:14;98507.28;;;4.20;100.00
50123;BME280;36021;48.670;6.184;2022-12-08T06:47:40;98498.53;;;4.13;100.00
50123;BME280;36021;48.670;6.184;2022-12-08T06:50:09;98502.38;;;4.22;100.00
50123;BME280;36021;48.670;6.184;2022-12-08T06:52:35;98503.78;;;4.25;100.00
50123;BME280;36021;48.670;6.184;2022-12-08T06:55:01;98502.94;;;4.25;100.00
50123;BME280;36021;48.670;6.184;2022-12-08T06:57:27;98500.19;;;4.19;100.00
50123;BME280;36021;48.670;6.184;2022-12-08T06:59:52;98501.31;;;4.24;100.00
50123;BME280;36021;48.670;6.184;2022-12-08T07:02:18;98496.13;;;4.22;100.00
50123;BME280;36021;48.670;6.184;2022-12-08T07:04:43;98506.75;;;4.18;100.00
50123;BME280;36021;48.670;6.184;2022-12-08T07:07:09;98496.94;;;4.22;100.00
50123;BME280;36021;48.670;6.184;2022-12-08T07:09:35;98492.50;;;4.06;100.00
50123;BME280;36021;48.670;6.184;2022-12-08T07:12:02;98506.13;;;4.06;100.00
50123;BME280;36021;48.670;6.184;2022-12-08T07:14:28;98501.22;;;4.03;100.00
50123;BME280;36021;48.670;6.184;2022-12-08T07:16:53;98503.97;;;4.08;100.00
50123;BME280;36021;48.670;6.184;2022-12-08T07:19:19;98502.91;;;4.14;100.00
50123;BME280;36021;48.670;6.184;2022-12-08T07:21:45;98494.41;;;4.06;100.00
50123;BME280;36021;48.670;6.184;2022-12-08T07:24:11;98492.78;;;4.05;100.00
50123;BME280;36021;48.670;6.184;2022-12-08T07:26:37;98493.59;;;4.05;100.00
50123;BME280;36021;48.670;6.184;2022-12-08T07:29:04;98499.59;;;4.02;100.00
50123;BME280;36021;48.670;6.184;2022-12-08T07:31:30;98493.56;;;4.00;100.00
50123;BME280;36021;48.670;6.184;2022-12-08T07:33:56;98501.19;;;3.98;100.00
50123;BME280;36021;48.670;6.184;2022-12-08T07:36:22;98501.19;;;3.98;100.00
50123;BME280;36021;48.670;6.184;2022-12-08T07:38:48;98503.81;;;3.78;100.00
50123;BME280;36021;48.670;6.184;2022-12-08T07:41:23;98500.84;;;3.85;100.00
50123;BME280;36021;48.670;6.184;2022-12-08T07:43:49;98503.88;;;3.93;100.00
50123;BME280;36021;48.670;6.184;2022-12-08T07:46:18;98501.75;;;4.00;100.00
50123;BME280;36021;48.670;6.184;2022-12-08T07:48:45;98494.13;;;4.02;100.00
50123;BME280;36021;48.670;6.184;2022-12-08T07:51:13;98492.22;;;4.03;100.00
50123;BME280;36021;48.670;6.184;2022-12-08T07:53:40;98492.50;;;4.01;100.00
50123;BME280;36021;48.670;6.184;2022-12-08T07:56:08;98492.22;;;4.03;100.00
50123;BME280;36021;48.670;6.184;2022-12-08T07:58:34;98497.16;;;4.16;100.00
50123;BME280;36021;48.670;6.184;2022-12-08T08:01:00;98493.66;;;4.26;100.00
50123;BME280;36021;48.670;6.184;2022-12-08T08:03:26;98486.06;;;4.28;100.00
50123;BME280;36021;48.670;6.184;2022-12-08T08:05:51;98481.97;;;4.35;100.00
50123;BME280;36021;48.670;6.184;2022-12-08T08:08:17;98481.72;;;4.32;100.00
50123;BME280;36021;48.670;6.184;2022-12-08T08:10:43;98479.47;;;4.24;100.00
50123;BME280;36021;48.670;6.184;2022-12-08T08:13:09;98478.94;;;4.22;100.00
50123;BME280;36021;48.670;6.184;2022-12-08T08:15:35;98481.63;;;4.16;100.00
50123;BME280;36021;48.670;6.184;2022-12-08T08:18:01;98476.72;;;4.08;100.00
50123;BME280;36021;48.670;6.184;2022-12-08T08:20:28;98479.97;;;4.10;100.00
50123;BME280;36021;48.670;6.184;2022-12-08T08:22:55;98486.78;;;4.08;100.00
50123;BME280;36021;48.670;6.184;2022-12-08T08:25:21;98495.78;;;4.08;100.00
50123;BME280;36021;48.670;6.184;2022-12-08T08:27:47;98496.34;;;4.10;100.00
50123;BME280;36021;48.670;6.184;2022-12-08T08:30:15;98492.53;;;4.11;100.00
50123;BME280;36021;48.670;6.184;2022-12-08T08:32:42;98489.81;;;4.11;100.00
50123;BME280;36021;48.670;6.184;2022-12-08T08:35:08;98491.66;;;4.06;100.00
50123;BME280;36021;48.670;6.184;2022-12-08T08:37:35;98493.59;;;4.05;100.00
50123;BME280;36021;48.670;6.184;2022-12-08T08:40:00;98489.22;;;4.04;100.00
50123;BME280;36021;48.670;6.184;2022-12-08T08:42:27;98493.03;;;3.98;100.00
50123;BME280;36021;48.670;6.184;2022-12-08T08:44:54;98490.31;;;4.03;100.00
50123;BME280;36021;48.670;6.184;2022-12-08T08:47:19;98484.84;;;4.03;100.00
50123;BME280;36021;48.670;6.184;2022-12-08T08:49:47;98478.56;;;4.03;100.00
50123;BME280;36021;48.670;6.184;2022-12-08T08:52:12;98481.34;;;4.08;100.00
50123;BME280;36021;48.670;6.184;2022-12-08T08:54:38;98481.06;;;4.04;100.00
50123;BME280;36021;48.670;6.184;2022-12-08T08:57:04;98479.94;;;4.00;100.00
50123;BME280;36021;48.670;6.184;2022-12-08T08:59:29;98482.13;;;3.98;100.00
50123;BME280;36021;48.670;6.184;2022-12-08T09:01:56;98483.72;;;3.99;100.00
50123;BME280;36021;48.670;6.184;2022-12-08T09:04:22;98488.09;;;3.95;100.00
50123;BME280;36021;48.670;6.184;2022-12-08T09:06:48;98490.78;;;3.85;100.00
50123;BME280;36021;48.670;6.184;2022-12-08T09:09:14;98486.69;;;3.88;100.00
50123;BME280;36021;48.670;6.184;2022-12-08T09:11:43;98483.19;;;3.92;100.00
50123;BME280;36021;48.670;6.184;2022-12-08T09:14:11;98489.72;;;3.91;100.00
50123;BME280;36021;48.670;6.184;2022-12-08T09:16:37;98487.56;;;3.98;100.00
50123;BME280;36021;48.670;6.184;2022-12-08T09:19:02;98483.72;;;3.99;100.00
50123;BME280;36021;48.670;6.184;2022-12-08T09:21:28;98477.50;;;3.99;100.00
50123;BME280;36021;48.670;6.184;2022-12-08T09:23:57;98476.97;;;4.02;100.00
50123;BME280;36021;48.670;6.184;2022-12-08T09:26:26;98481.59;;;4.01;100.00
50123;BME280;36021;48.670;6.184;2022-12-08T09:28:53;98472.03;;;4.04;100.00
50123;BME280;36021;48.670;6.184;2022-12-08T09:31:20;98469.31;;;4.04;100.00
50123;BME280;36021;48.670;6.184;2022-12-08T09:33:47;98477.78;;;4.12;100.00
50123;BME280;36021;48.670;6.184;2022-12-08T09:36:13;98481.09;;;4.14;100.00
50123;BME280;36021;48.670;6.184;2022-12-08T09:38:39;98481.66;;;4.22;100.00
50123;BME280;36021;48.670;6.184;2022-12-08T09:46:42;98473.53;;;4.32;100.00
50123;BME280;36021;48.670;6.184;2022-12-08T09:49:14;98462.59;;;4.27;100.00
50123;BME280;36021;48.670;6.184;2022-12-08T09:51:43;98462.03;;;4.30;100.00
50123;BME280;36021;48.670;6.184;2022-12-08T09:54:24;98453.91;;;4.35;100.00
50123;BME280;36021;48.670;6.184;2022-12-08T09:56:58;98456.09;;;4.43;100.00
50123;BME280;36021;48.670;6.184;2022-12-08T09:59:30;98450.09;;;4.46;100.00
50123;BME280;36021;48.670;6.184;2022-12-08T10:01:59;98443.53;;;4.52;100.00
50123;BME280;36021;48.670;6.184;2022-12-08T10:04:29;98448.47;;;4.50;100.00
50123;BME280;36021;48.670;6.184;2022-12-08T10:06:59;98441.94;;;4.51;100.00
50123;BME280;36021;48.670;6.184;2022-12-08T10:12:15;98437.81;;;4.58;100.00
50123;BME280;36021;48.670;6.184;2022-12-08T10:14:56;98430.47;;;4.54;100.00
50123;BME280;36021;48.670;6.184;2022-12-08T10:17:28;98426.13;;;4.58;100.00
50123;BME280;36021;48.670;6.184;2022-12-08T10:20:10;98428.00;;;4.52;100.00
50123;BME280;36021;48.670;6.184;2022-12-08T10:22:36;98426.63;;;4.55;100.00
50123;BME280;36021;48.670;6.184;2022-12-08T10:25:19;98419.56;;;4.59;100.00
50123;BME280;36021;48.670;6.184;2022-12-08T10:27:51;98417.09;;;4.62;100.00
50123;BME280;36021;48.670;6.184;2022-12-08T10:30:19;98419.28;;;4.60;100.00
50123;BME280;36021;48.670;6.184;2022-12-08T10:32:48;98414.13;;;4.64;100.00
50123;BME280;36021;48.670;6.184;2022-12-08T10:35:16;98413.56;;;4.72;100.00
50123;BME280;36021;48.670;6.184;2022-12-08T10:38:02;98409.75;;;4.73;100.00
50123;BME280;36021;48.670;6.184;2022-12-08T10:40:35;98402.41;;;4.84;100.00
50123;BME280;36021;48.670;6.184;2022-12-08T10:43:01;98390.94;;;4.87;100.00
50123;BME280;36021;48.670;6.184;2022-12-08T10:45:38;98391.72;;;4.92;100.00
50123;BME280;36021;48.670;6.184;2022-12-08T10:50:54;98394.47;;;4.97;100.00
50123;BME280;36021;48.670;6.184;2022-12-08T10:53:23;98386.28;;;4.97;100.00
50123;BME280;36021;48.670;6.184;2022-12-08T10:56:05;98385.72;;;5.05;100.00
50123;BME280;36021;48.670;6.184;2022-12-08T10:58:39;98384.91;;;5.10;100.00
50123;BME280;36021;48.670;6.184;2022-12-08T11:03:59;98370.13;;;5.26;100.00
50123;BME280;36021;48.670;6.184;2022-12-08T11:06:31;98371.47;;;5.29;100.00
50123;BME280;36021;48.670;6.184;2022-12-08T11:09:00;98363.25;;;5.34;100.00
50123;BME280;36021;48.670;6.184;2022-12-08T11:14:06;98349.56;;;5.49;100.00
50123;BME280;36021;48.670;6.184;2022-12-08T11:16:32;98339.72;;;5.53;100.00
50123;BME280;36021;48.670;6.184;2022-12-08T11:19:03;98342.13;;;5.64;100.00
50123;BME280;36021;48.670;6.184;2022-12-08T11:21:35;98335.84;;;5.64;100.00
50123;BME280;36021;48.670;6.184;2022-12-08T11:24:21;98343.47;;;5.67;100.00
50123;BME280;36021;48.670;6.184;2022-12-08T11:26:58;98332.28;;;5.68;100.00
50123;BME280;36021;48.670;6.184;2022-12-08T11:29:26;98327.31;;;5.75;100.00
50123;BME280;36021;48.670;6.184;2022-12-08T11:31:59;98329.25;;;5.70;100.00
50123;BME280;36021;48.670;6.184;2022-12-08T11:34:45;98325.13;;;5.77;100.00
50123;BME280;36021;48.670;6.184;2022-12-08T11:37:25;98322.06;;;5.84;100.00
50123;BME280;36021;48.670;6.184;2022-12-08T11:39:58;98318.31;;;5.75;100.00
50123;BME280;36021;48.670;6.184;2022-12-08T11:42:32;98318.09;;;5.61;100.00
50123;BME280;36021;48.670;6.184;2022-12-08T11:45:13;98319.44;;;5.69;100.00
50123;BME280;36021;48.670;6.184;2022-12-08T11:47:42;98311.22;;;5.64;100.00
50123;BME280;36021;48.670;6.184;2022-12-08T11:50:19;98320.00;;;5.61;100.00
50123;BME280;36021;48.670;6.184;2022-12-08T11:52:48;98306.09;;;5.52;100.00
50123;BME280;36021;48.670;6.184;2022-12-08T11:55:46;98307.94;;;5.67;100.00
50123;BME280;36021;48.670;6.184;2022-12-08T11:58:17;98303.56;;;5.71;100.00
50123;BME280;36021;48.670;6.184;2022-12-08T12:00:45;98305.44;;;5.75;100.00
50123;BME280;36021;48.670;6.184;2022-12-08T12:03:35;98293.66;;;5.85;100.00
50123;BME280;36021;48.670;6.184;2022-12-08T12:06:24;98300.44;;;5.93;100.00
50123;BME280;36021;48.670;6.184;2022-12-08T12:15:11;98283.72;;;5.99;100.00
50123;BME280;36021;48.670;6.184;2022-12-08T12:17:53;98286.78;;;5.93;100.00
50123;BME280;36021;48.670;6.184;2022-12-08T12:20:23;98283.25;;;5.92;100.00
50123;BME280;36021;48.670;6.184;2022-12-08T12:25:33;98281.09;;;5.79;100.00
50123;BME280;36021;48.670;6.184;2022-12-08T12:28:04;98276.22;;;5.71;100.00
50123;BME280;36021;48.670;6.184;2022-12-08T12:30:48;98277.28;;;5.75;100.00
50123;BME280;36021;48.670;6.184;2022-12-08T12:33:16;98275.63;;;5.79;100.00
50123;BME280;36021;48.670;6.184;2022-12-08T12:35:44;98273.47;;;5.71;100.00
50123;BME280;36021;48.670;6.184;2022-12-08T12:38:31;98277.28;;;5.75;100.00
50123;BME280;36021;48.670;6.184;2022-12-08T12:41:26;98272.09;;;5.78;100.00
50123;BME280;36021;48.670;6.184;2022-12-08T12:47:03;98265.72;;;5.93;100.00
50123;BME280;36021;48.670;6.184;2022-12-08T12:52:34;98268.72;;;5.97;100.00
50123;BME280;36021;48.670;6.184;2022-12-08T12:57:35;98260.28;;;5.88;100.00
50123;BME280;36021;48.670;6.184;2022-12-08T13:02:38;98268.97;;;6.00;100.00
50123;BME280;36021;48.670;6.184;2022-12-08T13:05:16;98262.59;;;6.10;100.00
50123;BME280;36021;48.670;6.184;2022-12-08T13:07:53;98254.38;;;6.15;100.00
50123;BME280;36021;48.670;6.184;2022-12-08T13:10:37;98247.75;;;6.21;100.00
50123;BME280;36021;48.670;6.184;2022-12-08T13:15:36;98244.06;;;6.36;100.00
50123;BME280;36021;48.670;6.184;2022-12-08T13:18:04;98244.38;;;6.34;100.00
50123;BME280;36021;48.670;6.184;2022-12-08T13:20:40;98246.34;;;6.23;100.00
50123;BME280;36021;48.670;6.184;2022-12-08T13:24:11;98244.63;;;6.33;100.00
50123;BME280;36021;48.670;6.184;2022-12-08T13:26:23;98253.41;;;6.35;100.00
50123;BME280;36021;48.670;6.184;2022-12-08T13:34:00;98243.44;;;6.15;100.00
50123;BME280;36021;48.670;6.184;2022-12-08T13:36:34;98232.69;;;6.18;100.00
50123;BME280;36021;48.670;6.184;2022-12-08T13:39:03;98232.63;;;6.28;100.00
50123;BME280;36021;48.670;6.184;2022-12-08T13:41:40;98221.69;;;6.28;100.00
50123;BME280;36021;48.670;6.184;2022-12-08T13:44:21;98216.78;;;6.25;100.00
50123;BME280;36021;48.670;6.184;2022-12-08T13:46:53;98222.00;;;6.22;100.00
50123;BME280;36021;48.670;6.184;2022-12-08T13:49:28;98221.28;;;6.11;100.00
50123;BME280;36021;48.670;6.184;2022-12-08T13:51:55;98219.09;;;6.13;100.00
50123;BME280;36021;48.670;6.184;2022-12-08T13:54:29;98221.28;;;6.11;100.00
50123;BME280;36021;48.670;6.184;2022-12-08T13:56:56;98220.72;;;6.14;100.00
50123;BME280;36021;48.670;6.184;2022-12-08T13:59:30;98221.38;;;6.01;100.00
50123;BME280;36021;48.670;6.184;2022-12-08T14:02:31;98220.81;;;5.99;100.00
50123;BME280;36021;48.670;6.184;2022-12-08T14:05:00;98235.47;;;5.69;100.00
50123;BME280;36021;48.670;6.184;2022-12-08T14:07:26;98224.28;;;5.71;100.00
50123;BME280;36021;48.670;6.184;2022-12-08T14:09:52;98231.44;;;5.62;100.00
50123;BME280;36021;48.670;6.184;2022-12-08T14:12:26;98225.16;;;5.56;100.00
50123;BME280;36021;48.670;6.184;2022-12-08T14:14:57;98234.22;;;5.52;100.00
50123;BME280;36021;48.670;6.184;2022-12-08T14:17:23;98237.53;;;5.44;100.00
50123;BME280;36021;48.670;6.184;2022-12-08T14:19:54;98229.91;;;5.41;100.00
50123;BME280;36021;48.670;6.184;2022-12-08T14:22:21;98231.00;;;5.45;100.00
50123;BME280;36021;48.670;6.184;2022-12-08T14:24:49;98232.66;;;5.41;100.00
50123;BME280;36021;48.670;6.184;2022-12-08T14:27:25;98228.25;;;5.45;100.00
50123;BME280;36021;48.670;6.184;2022-12-08T14:29:54;98234.81;;;5.49;100.00
50123;BME280;36021;48.670;6.184;2022-12-08T14:32:31;98231.56;;;5.42;100.00
50123;BME280;36021;48.670;6.184;2022-12-08T14:37:28;98233.75;;;5.40;100.00
50123;BME280;36021;48.670;6.184;2022-12-08T14:40:05;98233.16;;;5.48;100.00